createdAt,value
2022-11-08T00:00:12.567Z,15.53
2022-11-08T00:05:34.093Z,15.47
2022-11-08T00:10:54.630Z,15.45
2022-11-08T00:15:57.251Z,15.46
2022-11-08T00:21:03.635Z,15.43
2022-11-08T00:26:06.858Z,15.46
2022-11-08T00:31:09.510Z,15.46
2022-11-08T00:36:13.541Z,15.48
2022-11-08T00:41:16.223Z,15.52
2022-11-08T00:46:18.836Z,15.49
2022-11-08T00:51:22.798Z,15.50
2022-11-08T00:56:25.532Z,15.51
2022-11-08T01:01:28.492Z,15.53
2022-11-08T01:06:32.528Z,15.52
2022-11-08T01:11:35.595Z,15.54
2022-11-08T01:16:38.276Z,15.51
2022-11-08T01:21:42.236Z,15.51
2022-11-08T01:26:44.934Z,15.51
2022-11-08T01:31:47.629Z,15.52
2022-11-08T01:36:51.617Z,15.53
2022-11-08T01:41:54.269Z,15.49
2022-11-08T01:46:56.899Z,15.52
2022-11-08T01:52:09.274Z,15.54
2022-11-08T01:57:16.217Z,15.50
2022-11-08T02:02:19.634Z,15.51
2022-11-08T02:07:24.091Z,15.53
2022-11-08T02:12:26.942Z,15.53
2022-11-08T02:17:29.586Z,15.51
2022-11-08T02:22:36.681Z,15.49
2022-11-08T02:27:40.661Z,15.51
2022-11-08T02:32:43.559Z,15.53
2022-11-08T02:37:46.604Z,15.48
2022-11-08T02:42:50.613Z,15.49
2022-11-08T02:47:53.285Z,15.45
2022-11-08T02:52:55.893Z,15.43
2022-11-08T02:58:00.051Z,15.41
2022-11-08T03:03:02.818Z,15.37
2022-11-08T03:08:05.881Z,15.33
2022-11-08T03:13:09.874Z,15.32
2022-11-08T03:18:12.486Z,15.26
2022-11-08T03:23:15.268Z,15.23
2022-11-08T03:28:22.650Z,15.27
2022-11-08T03:33:26.064Z,15.21
2022-11-08T03:38:28.695Z,15.22
2022-11-08T03:43:32.638Z,15.19
2022-11-08T03:48:35.311Z,15.16
2022-11-08T03:53:37.921Z,15.13
2022-11-08T03:58:41.964Z,15.09
2022-11-08T04:03:44.631Z,15.06
2022-11-08T04:08:47.276Z,15.07
2022-11-08T04:14:08.695Z,15.08
2022-11-08T04:19:29.017Z,15.02
2022-11-08T04:24:31.691Z,15.01
2022-11-08T04:29:35.689Z,14.96
2022-11-08T04:34:38.431Z,14.97
2022-11-08T04:39:41.097Z,14.95
2022-11-08T04:44:45.048Z,14.95
2022-11-08T04:49:47.791Z,14.92
2022-11-08T04:54:50.398Z,14.89
2022-11-08T04:59:54.381Z,14.90
2022-11-08T05:04:57.747Z,14.90
2022-11-08T05:10:02.549Z,14.86
2022-11-08T05:15:08.646Z,14.82
2022-11-08T05:20:29.589Z,14.85
2022-11-08T05:25:32.253Z,14.82
2022-11-08T05:30:36.229Z,14.82
2022-11-08T05:35:38.869Z,14.81
2022-11-08T05:40:41.856Z,14.81
2022-11-08T05:45:47.355Z,14.78
2022-11-08T05:50:50.413Z,14.78
2022-11-08T05:55:58.379Z,14.77
2022-11-08T06:01:03.269Z,14.77
2022-11-08T06:06:07.681Z,14.76
2022-11-08T06:11:12.843Z,14.75
2022-11-08T06:16:18.103Z,14.75
2022-11-08T06:21:22.050Z,14.71
2022-11-08T06:26:25.201Z,14.75
2022-11-08T06:31:29.374Z,14.73
2022-11-08T06:36:32.030Z,14.73
2022-11-08T06:41:35.044Z,14.77
2022-11-08T06:46:38.974Z,14.78
2022-11-08T06:51:41.601Z,14.78
2022-11-08T06:56:44.305Z,14.79
2022-11-08T07:01:48.456Z,14.80
2022-11-08T07:06:51.173Z,14.81
2022-11-08T07:11:54.209Z,14.85
2022-11-08T07:16:58.159Z,14.86
2022-11-08T07:22:00.784Z,14.88
2022-11-08T07:27:03.432Z,14.92
2022-11-08T07:32:07.380Z,14.94
2022-11-08T07:37:09.987Z,14.98
2022-11-08T07:42:12.756Z,15.02
2022-11-08T07:47:18.163Z,15.07
2022-11-08T07:52:20.812Z,15.22
2022-11-08T07:57:23.755Z,15.38
2022-11-08T08:02:27.763Z,15.70
2022-11-08T08:07:30.462Z,15.90
2022-11-08T08:12:33.064Z,16.09
2022-11-08T08:17:37.084Z,16.10
2022-11-08T08:22:44.527Z,16.14
2022-11-08T08:27:48.254Z,16.15
2022-11-08T08:33:14.722Z,16.22
2022-11-08T08:38:15.329Z,16.30
2022-11-08T08:43:18.329Z,16.31
2022-11-08T08:48:22.637Z,16.31
2022-11-08T08:53:25.276Z,16.24
2022-11-08T08:58:27.874Z,16.23
2022-11-08T09:03:31.844Z,16.18
2022-11-08T09:08:34.464Z,16.11
2022-11-08T09:13:37.079Z,16.11
2022-11-08T09:18:41.543Z,16.07
2022-11-08T09:23:44.224Z,16.05
2022-11-08T09:28:47.072Z,16.06
2022-11-08T09:33:52.098Z,16.06
2022-11-08T09:38:54.690Z,16.07
2022-11-08T09:44:09.172Z,16.03
2022-11-08T09:49:17.861Z,16.04
2022-11-08T09:54:22.274Z,16.04
2022-11-08T09:59:34.498Z,16.07
2022-11-08T10:04:38.494Z,16.07
2022-11-08T10:09:54.822Z,16.07
2022-11-08T10:15:07.948Z,16.08
2022-11-08T10:20:20.819Z,16.04
2022-11-08T10:25:25.911Z,16.07
2022-11-08T10:30:31.709Z,16.05
2022-11-08T10:35:39.615Z,16.08
2022-11-08T10:40:46.933Z,16.07
2022-11-08T10:45:49.595Z,16.08
2022-11-08T10:50:55.469Z,16.06
2022-11-08T10:56:01.696Z,16.08
2022-11-08T11:01:08.246Z,16.07
2022-11-08T11:06:25.028Z,16.10
2022-11-08T11:11:36.208Z,16.10
2022-11-08T11:16:39.084Z,16.10
2022-11-08T11:21:44.825Z,16.09
2022-11-08T11:26:49.855Z,16.09
2022-11-08T11:31:54.595Z,16.10
2022-11-08T11:37:03.067Z,16.09
2022-11-08T11:42:31.178Z,16.11
2022-11-08T11:47:36.504Z,16.10
2022-11-08T11:52:40.920Z,16.13
2022-11-08T11:57:53.532Z,16.13
2022-11-08T12:03:12.054Z,16.10
2022-11-08T12:08:29.450Z,16.44
2022-11-08T12:13:39.701Z,16.35
2022-11-08T12:18:54.160Z,16.68
2022-11-08T12:24:17.090Z,16.83
2022-11-08T12:29:26.902Z,16.99
2022-11-08T12:34:35.345Z,17.18
2022-11-08T12:39:45.088Z,17.38
2022-11-08T12:45:10.606Z,17.54
2022-11-08T12:50:21.595Z,17.71
2022-11-08T12:55:29.062Z,17.91
2022-11-08T13:00:32.242Z,18.10
2022-11-08T13:05:37.488Z,18.26
2022-11-08T13:10:48.039Z,18.29
2022-11-08T13:16:12.026Z,18.49
2022-11-08T13:21:34.140Z,18.56
2022-11-08T13:26:42.360Z,18.70
2022-11-08T13:31:50.572Z,18.79
2022-11-08T13:37:05.994Z,18.91
2022-11-08T13:42:39.920Z,18.99
2022-11-08T13:47:56.898Z,19.02
2022-11-08T13:53:03.700Z,19.30
2022-11-08T13:58:32.545Z,19.15
2022-11-08T14:03:54.801Z,19.30
2022-11-08T14:09:03.511Z,19.36
2022-11-08T14:14:23.474Z,19.44
2022-11-08T14:19:27.709Z,19.53
2022-11-08T14:24:33.991Z,19.53
2022-11-08T14:29:38.446Z,19.60
2022-11-08T14:34:41.135Z,19.62
2022-11-08T14:39:46.437Z,19.42
2022-11-08T14:44:53.619Z,19.55
2022-11-08T14:49:56.284Z,19.57
2022-11-08T14:55:02.683Z,19.61
2022-11-08T15:00:15.431Z,19.68
2022-11-08T15:05:34.391Z,19.72
2022-11-08T15:10:37.354Z,19.73
2022-11-08T15:15:41.407Z,19.62
2022-11-08T15:20:55.348Z,19.73
2022-11-08T15:25:59.468Z,19.70
2022-11-08T15:31:04.758Z,19.75
2022-11-08T15:36:12.481Z,19.78
2022-11-08T15:41:39.794Z,19.72
2022-11-08T15:46:43.900Z,19.75
2022-11-08T15:51:46.936Z,19.65
2022-11-08T15:56:50.832Z,19.74
2022-11-08T16:01:57.761Z,19.72
2022-11-08T16:07:00.578Z,19.75
2022-11-08T16:12:03.635Z,19.85
2022-11-08T16:17:12.220Z,19.83
2022-11-08T16:22:19.057Z,19.77
2022-11-08T16:27:23.082Z,19.70
2022-11-08T16:32:27.057Z,19.75
2022-11-08T16:37:29.651Z,19.80
2022-11-08T16:42:32.576Z,19.90
2022-11-08T16:47:36.665Z,19.84
2022-11-08T16:52:39.310Z,19.87
2022-11-08T16:57:42.073Z,19.88
2022-11-08T17:02:48.267Z,19.77
2022-11-08T17:07:52.068Z,19.84
2022-11-08T17:12:55.610Z,19.92
2022-11-08T17:17:59.976Z,19.94
2022-11-08T17:23:02.833Z,19.96
2022-11-08T17:28:05.924Z,19.96
2022-11-08T17:33:09.869Z,19.96
2022-11-08T17:38:12.695Z,19.87
2022-11-08T17:43:16.195Z,20.00
2022-11-08T17:48:20.424Z,20.01
2022-11-08T17:53:23.418Z,20.09
2022-11-08T17:58:26.795Z,20.09
2022-11-08T18:03:30.811Z,20.06
2022-11-08T18:08:34.635Z,20.02
2022-11-08T18:13:37.297Z,19.89
2022-11-08T18:18:41.701Z,19.97
2022-11-08T18:23:45.799Z,19.96
2022-11-08T18:28:48.460Z,19.75
2022-11-08T18:33:52.730Z,19.88
2022-11-08T18:38:57.361Z,19.99
2022-11-08T18:44:01.240Z,20.01
2022-11-08T18:49:05.953Z,20.02
2022-11-08T18:54:08.662Z,20.03
2022-11-08T18:59:11.330Z,20.04
2022-11-08T19:04:15.360Z,20.01
2022-11-08T19:09:19.130Z,19.99
2022-11-08T19:14:21.845Z,19.89
2022-11-08T19:19:25.896Z,19.71
2022-11-08T19:24:28.503Z,19.91
2022-11-08T19:29:31.147Z,19.95
2022-11-08T19:34:35.732Z,20.03
2022-11-08T19:39:38.441Z,20.03
2022-11-08T19:44:41.111Z,20.04
2022-11-08T19:49:45.076Z,20.01
2022-11-08T19:54:47.741Z,19.97
2022-11-08T19:59:51.111Z,19.96
2022-11-08T20:04:55.061Z,19.92
2022-11-08T20:09:57.941Z,19.69
2022-11-08T20:15:00.563Z,19.93
2022-11-08T20:20:05.593Z,19.91
2022-11-08T20:25:08.996Z,19.90
2022-11-08T20:30:12.980Z,19.88
2022-11-08T20:35:19.246Z,19.86
2022-11-08T20:40:25.943Z,19.85
2022-11-08T20:45:28.591Z,19.87
2022-11-08T20:50:32.626Z,19.82
2022-11-08T20:55:35.283Z,19.67
2022-11-08T21:00:57.422Z,19.65
2022-11-08T21:06:03.136Z,19.54
2022-11-08T21:11:07.182Z,19.50
2022-11-08T21:16:28.785Z,19.30
2022-11-08T21:21:33.717Z,19.33
2022-11-08T21:26:36.972Z,19.26
2022-11-08T21:31:39.688Z,19.19
2022-11-08T21:36:43.708Z,19.13
2022-11-08T21:41:46.360Z,19.06
2022-11-08T21:46:49.035Z,19.04
2022-11-08T21:51:53.050Z,19.01
2022-11-08T21:56:55.685Z,18.93
2022-11-08T22:01:59.066Z,18.82
2022-11-08T22:07:03.080Z,18.81
2022-11-08T22:12:06.003Z,18.67
2022-11-08T22:17:08.700Z,18.61
2022-11-08T22:22:12.855Z,18.55
2022-11-08T22:27:15.555Z,18.49
2022-11-08T22:32:18.355Z,18.40
2022-11-08T22:37:22.417Z,18.34
2022-11-08T22:42:25.156Z,18.27
2022-11-08T22:47:27.916Z,18.27
2022-11-08T22:52:32.022Z,18.19
2022-11-08T22:57:34.773Z,18.19
2022-11-08T23:02:37.481Z,18.18
2022-11-08T23:07:41.587Z,18.14
2022-11-08T23:13:02.057Z,18.07
2022-11-08T23:18:04.862Z,18.07
2022-11-08T23:23:26.413Z,17.98
2022-11-08T23:28:47.034Z,17.94
2022-11-08T23:33:49.799Z,17.90
2022-11-08T23:38:53.899Z,17.92
2022-11-08T23:44:13.961Z,17.84
2022-11-08T23:49:16.659Z,17.82
2022-11-08T23:54:21.223Z,17.82
2022-11-08T23:59:23.881Z,17.77
